createdAt,value
2022-10-23T00:00:33.776Z,63.00
2022-10-23T00:03:41.021Z,63.10
2022-10-23T00:06:51.316Z,63.30
2022-10-23T00:09:58.832Z,63.20
2022-10-23T00:13:06.073Z,63.30
2022-10-23T00:16:13.776Z,63.40
2022-10-23T00:19:21.163Z,63.50
2022-10-23T00:22:31.277Z,63.50
2022-10-23T00:25:39.197Z,63.60
2022-10-23T00:28:46.338Z,63.60
2022-10-23T00:31:53.448Z,63.70
2022-10-23T00:35:00.552Z,63.70
2022-10-23T00:38:10.907Z,63.80
2022-10-23T00:41:20.417Z,63.80
2022-10-23T00:44:46.196Z,63.80
2022-10-23T00:47:53.553Z,63.80
2022-10-23T00:50:59.133Z,63.90
2022-10-23T00:54:23.414Z,63.90
2022-10-23T00:57:32.111Z,64.00
2022-10-23T01:00:45.206Z,64.10
2022-10-23T01:03:52.971Z,64.00
2022-10-23T01:07:02.875Z,64.00
2022-10-23T01:10:14.853Z,64.00
2022-10-23T01:13:26.887Z,64.00
2022-10-23T01:16:37.962Z,64.00
2022-10-23T01:19:53.015Z,64.00
2022-10-23T01:23:14.603Z,64.00
2022-10-23T01:26:29.370Z,64.00
2022-10-23T01:29:41.250Z,64.10
2022-10-23T01:32:51.095Z,64.10
2022-10-23T01:36:02.247Z,64.10
2022-10-23T01:39:10.951Z,64.10
2022-10-23T01:42:21.484Z,64.10
2022-10-23T01:45:34.025Z,64.20
2022-10-23T01:48:41.515Z,64.20
2022-10-23T01:51:50.738Z,64.20
2022-10-23T01:55:00.095Z,64.20
2022-10-23T01:58:08.940Z,64.30
2022-10-23T02:01:19.871Z,64.20
2022-10-23T02:04:30.606Z,64.20
2022-10-23T02:07:38.373Z,64.20
2022-10-23T02:10:48.942Z,64.30
2022-10-23T02:13:58.797Z,64.30
2022-10-23T02:17:11.986Z,64.30
2022-10-23T02:20:23.004Z,64.30
2022-10-23T02:23:32.858Z,64.30
2022-10-23T02:26:42.457Z,64.40
2022-10-23T02:29:51.486Z,64.40
2022-10-23T02:33:02.011Z,64.30
2022-10-23T02:36:09.377Z,64.30
2022-10-23T02:39:16.598Z,64.30
2022-10-23T02:42:26.585Z,64.30
2022-10-23T02:45:37.126Z,64.30
2022-10-23T02:48:51.044Z,64.30
2022-10-23T02:52:02.345Z,64.30
2022-10-23T02:55:14.725Z,64.30
2022-10-23T02:58:23.929Z,64.30
2022-10-23T03:01:32.846Z,64.30
2022-10-23T03:04:43.575Z,64.30
2022-10-23T03:07:50.665Z,64.30
2022-10-23T03:10:57.976Z,64.30
2022-10-23T03:14:05.317Z,64.40
2022-10-23T03:17:12.947Z,64.30
2022-10-23T03:20:23.192Z,64.30
2022-10-23T03:23:30.720Z,64.30
2022-10-23T03:26:37.990Z,64.40
2022-10-23T03:29:45.230Z,64.30
2022-10-23T03:32:52.459Z,64.40
2022-10-23T03:36:02.392Z,64.40
2022-10-23T03:39:09.601Z,64.40
2022-10-23T03:42:17.048Z,64.40
2022-10-23T03:45:24.197Z,64.40
2022-10-23T03:48:32.906Z,64.50
2022-10-23T03:51:44.298Z,64.40
2022-10-23T03:54:51.649Z,64.50
2022-10-23T03:57:58.840Z,64.40
2022-10-23T04:01:06.331Z,64.50
2022-10-23T04:04:13.762Z,64.60
2022-10-23T04:07:23.815Z,64.60
2022-10-23T04:10:30.972Z,64.60
2022-10-23T04:13:38.187Z,64.60
2022-10-23T04:16:45.697Z,64.50
2022-10-23T04:19:52.967Z,64.60
2022-10-23T04:23:03.160Z,64.50
2022-10-23T04:26:10.589Z,64.50
2022-10-23T04:29:17.918Z,64.50
2022-10-23T04:32:25.231Z,64.50
2022-10-23T04:35:32.332Z,64.50
2022-10-23T04:38:42.450Z,64.50
2022-10-23T04:41:49.707Z,64.50
2022-10-23T04:44:56.958Z,64.50
2022-10-23T04:48:04.146Z,64.50
2022-10-23T04:51:11.414Z,64.50
2022-10-23T04:54:21.409Z,64.50
2022-10-23T04:57:28.692Z,64.50
2022-10-23T05:00:36.027Z,64.50
2022-10-23T05:03:44.371Z,64.50
2022-10-23T05:06:51.781Z,64.50
2022-10-23T05:10:01.875Z,64.40
2022-10-23T05:13:09.390Z,64.50
2022-10-23T05:16:23.769Z,64.40
2022-10-23T05:19:30.305Z,64.50
2022-10-23T05:22:39.755Z,64.50
2022-10-23T05:25:47.592Z,64.50
2022-10-23T05:28:54.794Z,64.50
2022-10-23T05:32:04.428Z,64.50
2022-10-23T05:35:12.696Z,64.50
2022-10-23T05:38:19.895Z,64.50
2022-10-23T05:41:30.014Z,64.50
2022-10-23T05:44:37.410Z,64.50
2022-10-23T05:47:46.946Z,64.40
2022-10-23T05:50:54.336Z,64.50
2022-10-23T05:54:01.774Z,64.50
2022-10-23T05:57:12.035Z,64.40
2022-10-23T06:00:19.291Z,64.40
2022-10-23T06:03:26.490Z,64.50
2022-10-23T06:06:33.917Z,64.50
2022-10-23T06:09:41.279Z,64.40
2022-10-23T06:12:51.161Z,64.50
2022-10-23T06:15:58.208Z,64.40
2022-10-23T06:19:05.283Z,64.40
2022-10-23T06:22:13.019Z,64.40
2022-10-23T06:25:20.394Z,64.40
2022-10-23T06:28:30.668Z,64.30
2022-10-23T06:31:37.890Z,64.30
2022-10-23T06:34:45.283Z,64.40
2022-10-23T06:37:52.365Z,64.30
2022-10-23T06:41:00.051Z,64.30
2022-10-23T06:44:10.512Z,64.40
2022-10-23T06:50:31.428Z,64.30
2022-10-23T06:53:39.216Z,64.30
2022-10-23T06:56:48.515Z,64.30
2022-10-23T06:59:58.625Z,64.40
2022-10-23T07:03:06.241Z,64.30
2022-10-23T07:06:13.808Z,64.40
2022-10-23T07:09:21.079Z,64.30
2022-10-23T07:12:28.259Z,64.30
2022-10-23T07:15:38.193Z,64.30
2022-10-23T07:18:45.543Z,64.30
2022-10-23T07:21:53.721Z,64.20
2022-10-23T07:25:00.905Z,64.20
2022-10-23T07:28:08.548Z,64.30
2022-10-23T07:31:18.605Z,64.30
2022-10-23T07:34:26.010Z,64.30
2022-10-23T07:37:33.298Z,64.30
2022-10-23T07:40:40.577Z,64.30
2022-10-23T07:43:47.864Z,64.30
2022-10-23T07:46:57.889Z,64.30
2022-10-23T07:50:05.063Z,64.30
2022-10-23T07:53:17.941Z,64.30
2022-10-23T07:56:26.592Z,64.30
2022-10-23T07:59:37.181Z,64.30
2022-10-23T08:02:48.101Z,64.30
2022-10-23T08:05:55.783Z,64.30
2022-10-23T08:09:06.252Z,64.30
2022-10-23T08:12:14.139Z,64.20
2022-10-23T08:15:21.267Z,64.30
2022-10-23T08:18:31.341Z,64.20
2022-10-23T08:21:38.741Z,64.30
2022-10-23T08:24:46.049Z,64.30
2022-10-23T08:27:53.264Z,64.30
2022-10-23T08:31:00.890Z,64.30
2022-10-23T08:34:11.042Z,64.30
2022-10-23T08:37:18.096Z,64.30
2022-10-23T08:40:26.417Z,64.30
2022-10-23T08:43:38.260Z,64.30
2022-10-23T08:46:47.422Z,64.30
2022-10-23T08:50:00.154Z,64.20
2022-10-23T08:53:09.331Z,64.30
2022-10-23T08:56:28.776Z,64.30
2022-10-23T08:59:40.336Z,64.40
2022-10-23T09:02:49.133Z,64.50
2022-10-23T09:06:07.784Z,64.40
2022-10-23T09:09:26.192Z,64.30
2022-10-23T09:12:33.964Z,64.30
2022-10-23T09:15:44.808Z,64.70
2022-10-23T09:18:52.783Z,64.80
2022-10-23T09:22:02.988Z,65.10
2022-10-23T09:25:12.097Z,65.20
2022-10-23T09:28:22.170Z,65.40
2022-10-23T09:31:29.512Z,65.60
2022-10-23T09:34:38.066Z,65.70
2022-10-23T09:37:53.535Z,65.70
2022-10-23T09:41:02.041Z,65.80
2022-10-23T09:44:18.757Z,65.80
2022-10-23T09:47:28.319Z,65.80
2022-10-23T09:50:36.032Z,65.80
2022-10-23T09:53:53.329Z,65.90
2022-10-23T09:57:01.841Z,65.70
2022-10-23T10:00:18.361Z,65.70
2022-10-23T10:03:26.498Z,65.80
2022-10-23T10:06:34.427Z,65.60
2022-10-23T10:09:44.365Z,65.50
2022-10-23T10:12:53.338Z,65.50
2022-10-23T10:16:02.034Z,65.40
2022-10-23T10:19:15.276Z,65.40
2022-10-23T10:22:29.316Z,65.30
2022-10-23T10:25:40.834Z,65.30
2022-10-23T10:28:53.786Z,65.40
2022-10-23T10:32:07.020Z,65.30
2022-10-23T10:35:24.985Z,65.30
2022-10-23T10:38:39.797Z,65.50
2022-10-23T10:41:53.420Z,65.40
2022-10-23T10:45:08.200Z,65.30
2022-10-23T10:48:31.194Z,65.40
2022-10-23T10:51:42.838Z,65.30
2022-10-23T10:54:55.016Z,65.30
2022-10-23T10:58:08.031Z,65.40
2022-10-23T11:01:19.138Z,65.30
2022-10-23T11:04:33.085Z,65.40
2022-10-23T11:07:42.195Z,65.20
2022-10-23T11:10:50.606Z,65.10
2022-10-23T11:14:00.615Z,65.10
2022-10-23T11:17:12.585Z,65.10
2022-10-23T11:20:27.610Z,65.20
2022-10-23T11:23:51.333Z,65.30
2022-10-23T11:27:05.131Z,65.20
2022-10-23T11:30:30.151Z,65.10
2022-10-23T11:33:56.131Z,65.30
2022-10-23T11:37:09.233Z,65.40
2022-10-23T11:40:22.000Z,65.50
2022-10-23T11:43:29.752Z,65.50
2022-10-23T11:46:38.452Z,65.50
2022-10-23T11:49:45.725Z,65.60
2022-10-23T11:53:16.616Z,65.60
2022-10-23T11:56:28.443Z,65.70
2022-10-23T11:59:37.351Z,65.60
2022-10-23T12:02:47.087Z,65.30
2022-10-23T12:06:04.920Z,65.90
2022-10-23T12:09:25.518Z,66.20
2022-10-23T12:12:41.496Z,65.90
2022-10-23T12:16:00.121Z,66.20
2022-10-23T12:19:22.639Z,66.10
2022-10-23T12:26:00.206Z,66.00
2022-10-23T12:29:15.385Z,66.00
2022-10-23T12:32:25.526Z,65.90
2022-10-23T12:36:03.676Z,66.10
2022-10-23T12:39:26.130Z,66.00
2022-10-23T12:42:37.401Z,66.10
2022-10-23T12:45:46.607Z,66.00
2022-10-23T12:48:54.823Z,65.90
2022-10-23T12:52:03.797Z,65.90
2022-10-23T12:55:15.977Z,66.00
2022-10-23T12:58:30.289Z,66.10
2022-10-23T13:01:40.371Z,66.10
2022-10-23T13:04:52.746Z,66.20
2022-10-23T13:08:01.185Z,66.30
2022-10-23T13:11:09.566Z,66.30
2022-10-23T13:14:18.183Z,66.20
2022-10-23T13:17:36.454Z,66.20
2022-10-23T13:20:47.288Z,66.40
2022-10-23T13:23:56.762Z,66.30
2022-10-23T13:27:06.242Z,66.50
2022-10-23T13:30:30.016Z,66.50
2022-10-23T13:33:42.530Z,66.50
2022-10-23T13:36:58.572Z,66.50
2022-10-23T13:40:10.888Z,66.50
2022-10-23T13:43:21.399Z,66.60
2022-10-23T13:46:30.773Z,66.60
2022-10-23T13:49:41.625Z,66.60
2022-10-23T13:52:50.669Z,66.60
2022-10-23T13:55:59.696Z,66.60
2022-10-23T13:59:08.380Z,66.70
2022-10-23T14:02:21.185Z,66.70
2022-10-23T14:05:31.406Z,66.70
2022-10-23T14:08:39.007Z,66.70
2022-10-23T14:11:46.442Z,66.80
2022-10-23T14:14:54.196Z,66.90
2022-10-23T14:18:04.591Z,66.90
2022-10-23T14:21:20.144Z,66.90
2022-10-23T14:24:27.587Z,66.90
2022-10-23T14:27:35.094Z,66.90
2022-10-23T14:30:42.205Z,66.90
2022-10-23T14:33:49.881Z,66.90
2022-10-23T14:37:15.157Z,66.90
2022-10-23T14:40:22.430Z,66.90
2022-10-23T14:43:29.660Z,66.90
2022-10-23T14:46:38.747Z,66.90
2022-10-23T14:49:46.808Z,67.00
2022-10-23T14:52:56.796Z,67.00
2022-10-23T14:56:04.607Z,67.00
2022-10-23T14:59:13.651Z,66.90
2022-10-23T15:02:21.251Z,66.90
2022-10-23T15:05:29.069Z,67.00
2022-10-23T15:08:39.539Z,67.00
2022-10-23T15:11:46.650Z,67.00
2022-10-23T15:14:53.704Z,67.20
2022-10-23T15:18:00.798Z,67.00
2022-10-23T15:21:08.651Z,67.00
2022-10-23T15:24:18.841Z,66.90
2022-10-23T15:27:26.207Z,66.90
2022-10-23T15:30:33.321Z,66.90
2022-10-23T15:33:41.625Z,67.00
2022-10-23T15:36:49.961Z,66.90
2022-10-23T15:40:02.196Z,67.00
2022-10-23T15:43:13.049Z,67.00
2022-10-23T15:46:20.442Z,66.90
2022-10-23T15:49:26.052Z,66.90
2022-10-23T15:52:33.341Z,66.90
2022-10-23T15:55:41.245Z,66.80
2022-10-23T15:58:48.498Z,66.70
2022-10-23T16:01:56.196Z,66.50
2022-10-23T16:05:03.660Z,66.60
2022-10-23T16:08:11.035Z,66.50
2022-10-23T16:11:22.732Z,66.50
2022-10-23T16:14:29.959Z,66.50
2022-10-23T16:17:37.328Z,66.70
2022-10-23T16:20:44.723Z,66.80
2022-10-23T16:23:57.502Z,66.80
2022-10-23T16:27:10.577Z,66.90
2022-10-23T16:30:18.012Z,66.90
2022-10-23T16:33:25.306Z,66.80
2022-10-23T16:36:33.054Z,66.80
2022-10-23T16:39:40.605Z,66.80
2022-10-23T16:42:50.716Z,66.80
2022-10-23T16:46:06.674Z,66.80
2022-10-23T16:49:14.686Z,66.80
2022-10-23T16:52:22.001Z,66.70
2022-10-23T16:55:29.407Z,66.70
2022-10-23T16:58:41.117Z,66.70
2022-10-23T17:01:48.614Z,66.70
2022-10-23T17:04:56.087Z,66.70
2022-10-23T17:08:03.902Z,66.70
2022-10-23T17:11:13.485Z,66.70
2022-10-23T17:14:29.102Z,66.70
2022-10-23T17:17:36.205Z,66.70
2022-10-23T17:20:43.403Z,66.70
2022-10-23T17:23:51.384Z,66.70
2022-10-23T17:26:59.694Z,66.70
2022-10-23T17:30:12.790Z,66.60
2022-10-23T17:33:20.347Z,66.50
2022-10-23T17:36:28.630Z,66.50
2022-10-23T17:39:36.109Z,66.50
2022-10-23T17:42:43.844Z,66.40
2022-10-23T17:45:53.957Z,66.70
2022-10-23T17:52:12.563Z,67.10
2022-10-23T17:55:19.898Z,67.50
2022-10-23T17:58:27.227Z,68.30
2022-10-23T18:01:37.523Z,68.60
2022-10-23T18:04:45.008Z,68.70
2022-10-23T18:07:55.525Z,68.60
2022-10-23T18:11:04.643Z,68.40
2022-10-23T18:14:09.719Z,68.20
2022-10-23T18:17:19.613Z,68.10
2022-10-23T18:20:27.319Z,67.90
2022-10-23T18:23:35.227Z,68.20
2022-10-23T18:26:43.919Z,68.30
2022-10-23T18:29:51.363Z,68.00
2022-10-23T18:33:01.783Z,68.00
2022-10-23T18:36:15.454Z,67.90
2022-10-23T18:39:24.449Z,67.90
2022-10-23T18:42:32.424Z,67.70
2022-10-23T18:45:39.974Z,67.70
2022-10-23T18:48:53.876Z,67.70
2022-10-23T18:52:01.559Z,67.80
2022-10-23T18:55:09.491Z,67.90
2022-10-23T18:58:16.851Z,67.70
2022-10-23T19:01:24.549Z,67.30
2022-10-23T19:04:36.514Z,67.40
2022-10-23T19:07:46.899Z,67.30
2022-10-23T19:10:55.226Z,67.10
2022-10-23T19:14:02.368Z,67.00
2022-10-23T19:17:11.407Z,67.00
2022-10-23T19:20:23.629Z,66.90
2022-10-23T19:23:32.417Z,67.00
2022-10-23T19:26:40.892Z,66.90
2022-10-23T19:29:49.490Z,66.70
2022-10-23T19:32:57.091Z,66.70
2022-10-23T19:36:14.353Z,66.70
2022-10-23T19:39:22.421Z,66.80
2022-10-23T19:42:29.948Z,66.90
2022-10-23T19:45:37.774Z,66.90
2022-10-23T19:48:46.985Z,66.80
2022-10-23T19:51:57.259Z,66.80
2022-10-23T19:55:05.759Z,66.90
2022-10-23T19:58:13.264Z,66.90
2022-10-23T20:01:21.690Z,67.00
2022-10-23T20:04:31.913Z,67.00
2022-10-23T20:07:43.152Z,66.90
2022-10-23T20:10:50.747Z,66.90
2022-10-23T20:13:56.070Z,66.80
2022-10-23T20:17:03.204Z,67.10
2022-10-23T20:20:10.610Z,67.30
2022-10-23T20:23:21.316Z,67.40
2022-10-23T20:26:29.114Z,67.40
2022-10-23T20:29:36.508Z,67.40
2022-10-23T20:32:44.017Z,67.40
2022-10-23T20:35:53.092Z,67.40
2022-10-23T20:39:04.581Z,67.40
2022-10-23T20:42:12.377Z,67.50
2022-10-23T20:45:19.859Z,67.10
2022-10-23T20:48:28.034Z,66.70
2022-10-23T20:51:36.031Z,66.50
2022-10-23T20:54:46.927Z,66.50
2022-10-23T20:57:54.892Z,66.50
2022-10-23T21:01:05.347Z,66.50
2022-10-23T21:04:14.733Z,66.70
2022-10-23T21:07:22.417Z,66.90
2022-10-23T21:10:32.581Z,67.10
2022-10-23T21:13:39.788Z,67.30
2022-10-23T21:16:47.350Z,67.50
2022-10-23T21:19:54.622Z,67.50
2022-10-23T21:23:02.008Z,67.50
2022-10-23T21:26:12.175Z,67.50
2022-10-23T21:29:20.358Z,67.30
2022-10-23T21:32:27.779Z,67.30
2022-10-23T21:35:36.133Z,67.30
2022-10-23T21:38:45.340Z,67.10
2022-10-23T21:41:55.360Z,67.00
2022-10-23T21:45:03.368Z,67.00
2022-10-23T21:48:08.608Z,66.90
2022-10-23T21:51:18.170Z,66.80
2022-10-23T21:54:26.382Z,66.70
2022-10-23T21:57:37.301Z,66.60
2022-10-23T22:00:44.567Z,66.30
2022-10-23T22:03:52.348Z,66.30
2022-10-23T22:07:02.950Z,66.30
2022-10-23T22:10:10.654Z,66.60
2022-10-23T22:13:20.901Z,66.30
2022-10-23T22:16:28.190Z,66.20
2022-10-23T22:19:35.658Z,66.10
2022-10-23T22:22:40.981Z,66.10
2022-10-23T22:25:48.190Z,66.10
2022-10-23T22:28:59.455Z,66.10
2022-10-23T22:32:06.644Z,66.10
2022-10-23T22:35:13.753Z,66.10
2022-10-23T22:38:21.007Z,66.10
2022-10-23T22:41:28.227Z,66.10
2022-10-23T22:44:38.305Z,66.20
2022-10-23T22:47:45.573Z,66.20
2022-10-23T22:50:52.961Z,66.10
2022-10-23T22:54:01.389Z,66.10
2022-10-23T22:57:08.622Z,66.10
2022-10-23T23:00:19.318Z,66.00
2022-10-23T23:03:26.795Z,66.00
2022-10-23T23:06:36.065Z,66.10
2022-10-23T23:09:44.526Z,66.00
2022-10-23T23:12:53.195Z,66.10
2022-10-23T23:16:03.231Z,66.10
2022-10-23T23:19:10.345Z,66.00
2022-10-23T23:22:17.863Z,66.00
2022-10-23T23:25:25.127Z,66.00
2022-10-23T23:28:32.293Z,66.00
2022-10-23T23:31:42.216Z,66.00
2022-10-23T23:34:49.234Z,66.00
2022-10-23T23:37:56.462Z,66.00
2022-10-23T23:41:03.731Z,66.00
2022-10-23T23:44:11.078Z,65.90
2022-10-23T23:47:21.059Z,65.90
2022-10-23T23:50:28.647Z,65.90
2022-10-23T23:53:36.026Z,65.90
2022-10-23T23:56:43.444Z,66.00
2022-10-23T23:59:50.852Z,65.90
